Time;durP1;ratioP1;P1;durP2;ratioP2;P2;SDS_P1;SDS_P2;PMS_P1;PMS_P2;Temp;Humidity;BMP_temperature;BMP_pressure;BME280_temperature;BME280_humidity;BME280_pressure;Samples;Min_cycle;Max_cycle;Signal;HPM_P1;HPM_P2
2023/05/09 00:00:41;;;;;;;3.40;3.10;;;12.30;99.90;;;;;;5037234;28;20474;-47
2023/05/09 00:03:07;;;;;;;7.90;3.97;;;12.30;99.90;;;;;;5035918;28;20848;-47
2023/05/09 00:05:32;;;;;;;4.30;3.40;;;12.30;99.90;;;;;;5036921;28;20187;-47
2023/05/09 00:07:58;;;;;;;8.00;3.90;;;12.40;99.90;;;;;;5037070;28;20207;-47
2023/05/09 00:10:24;;;;;;;6.07;3.70;;;12.40;99.90;;;;;;5037952;28;20218;-47
2023/05/09 00:12:50;;;;;;;4.93;3.80;;;12.30;99.90;;;;;;5036005;28;20655;-47
2023/05/09 00:15:16;;;;;;;5.70;4.33;;;12.30;99.90;;;;;;5036975;28;20187;-47
2023/05/09 00:17:41;;;;;;;5.70;3.40;;;12.30;99.90;;;;;;5036939;28;20410;-47
2023/05/09 00:20:11;;;;;;;4.93;3.00;;;12.20;99.90;;;;;;5034707;28;20183;-47
2023/05/09 00:22:37;;;;;;;5.00;3.67;;;12.20;99.90;;;;;;5034893;28;20198;-48
2023/05/09 00:25:03;;;;;;;5.83;3.53;;;12.10;99.90;;;;;;5034189;28;20442;-47
2023/05/09 00:27:29;;;;;;;4.93;3.47;;;12.10;99.90;;;;;;5035431;28;20552;-47
2023/05/09 00:29:55;;;;;;;6.07;3.77;;;12.10;99.90;;;;;;5035066;28;20268;-47
2023/05/09 00:32:21;;;;;;;4.00;3.57;;;12.00;99.90;;;;;;5034641;28;20942;-47
2023/05/09 00:34:46;;;;;;;5.47;3.30;;;12.00;99.90;;;;;;5034301;28;20442;-47
2023/05/09 00:37:12;;;;;;;4.70;3.37;;;12.00;99.90;;;;;;5036635;28;20616;-47
2023/05/09 00:39:37;;;;;;;8.10;3.67;;;11.90;99.90;;;;;;5034997;28;20218;-47
2023/05/09 00:42:03;;;;;;;7.00;4.00;;;11.90;99.90;;;;;;5035387;28;20199;-47
2023/05/09 00:44:29;;;;;;;7.03;3.73;;;11.90;99.90;;;;;;5033544;28;20187;-47
2023/05/09 00:46:54;;;;;;;5.50;3.47;;;11.90;99.90;;;;;;5036679;28;20513;-47
2023/05/09 00:49:20;;;;;;;4.57;3.33;;;11.90;99.90;;;;;;5035317;28;20231;-47
2023/05/09 00:51:47;;;;;;;5.17;4.20;;;11.80;99.90;;;;;;5035025;28;20204;-47
2023/05/09 00:54:12;;;;;;;6.17;3.60;;;11.80;99.90;;;;;;5035517;28;20438;-47
2023/05/09 00:56:38;;;;;;;7.00;4.23;;;11.80;99.90;;;;;;5036031;28;20472;-47
2023/05/09 00:59:05;;;;;;;5.57;3.73;;;11.80;99.90;;;;;;5034192;28;20278;-47
2023/05/09 01:01:31;;;;;;;5.03;3.70;;;11.80;99.90;;;;;;5034906;28;20202;-47
2023/05/09 01:03:57;;;;;;;8.40;3.97;;;11.70;99.90;;;;;;5032411;28;20435;-47
2023/05/09 01:06:40;;;;;;;5.50;3.80;;;11.70;99.90;;;;;;5035447;28;20663;-47
2023/05/09 01:09:08;;;;;;;6.10;3.80;;;11.70;99.90;;;;;;5036368;28;20489;-47
2023/05/09 01:11:52;;;;;;;7.50;3.80;;;11.60;99.90;;;;;;5034776;28;20469;-47
2023/05/09 01:14:58;;;;;;;3.97;3.57;;;11.70;99.90;;;;;;5034086;28;20442;-47
2023/05/09 01:17:32;;;;;;;5.53;3.70;;;11.70;99.90;;;;;;5021431;28;20454;-47
2023/05/09 01:20:32;;;;;;;5.90;4.07;;;11.70;99.90;;;;;;5034047;28;20501;-47
2023/05/09 01:23:11;;;;;;;7.83;4.10;;;11.60;99.90;;;;;;5033678;28;20596;-47
2023/05/09 01:26:01;;;;;;;4.37;3.97;;;11.60;99.90;;;;;;5034626;28;20413;-48
2023/05/09 01:29:03;;;;;;;6.50;3.57;;;11.50;99.90;;;;;;5034622;28;20438;-47
2023/05/09 01:31:33;;;;;;;5.17;3.90;;;11.40;99.90;;;;;;5032794;28;20515;-47
2023/05/09 01:34:01;;;;;;;7.43;4.07;;;11.40;99.90;;;;;;5026695;28;20454;-47
2023/05/09 01:36:31;;;;;;;9.37;4.33;;;11.40;99.90;;;;;;5029456;28;20778;-47
2023/05/09 01:38:58;;;;;;;5.60;3.67;;;11.40;99.90;;;;;;5034455;28;20541;-47
2023/05/09 01:41:27;;;;;;;8.43;4.10;;;11.40;99.90;;;;;;5034621;28;20449;-47
2023/05/09 01:43:55;;;;;;;5.80;3.87;;;11.20;99.90;;;;;;5032371;28;20469;-47
2023/05/09 01:46:24;;;;;;;4.93;4.43;;;11.20;99.90;;;;;;5034248;28;20449;-47
2023/05/09 01:48:49;;;;;;;8.03;4.30;;;11.10;99.90;;;;;;5033227;28;20919;-48
2023/05/09 01:51:16;;;;;;;4.70;4.00;;;11.10;99.90;;;;;;5033580;28;20480;-47
2023/05/09 01:53:43;;;;;;;4.57;4.00;;;11.00;99.90;;;;;;5032534;28;20462;-47
2023/05/09 01:56:09;;;;;;;8.90;4.27;;;11.00;99.90;;;;;;5033717;28;20934;-47
2023/05/09 01:58:37;;;;;;;4.70;4.20;;;11.10;99.90;;;;;;5034229;28;20445;-47
2023/05/09 02:01:04;;;;;;;5.43;3.83;;;11.10;99.90;;;;;;5033503;28;20798;-47
2023/05/09 02:03:32;;;;;;;4.60;4.20;;;11.10;99.90;;;;;;5032957;28;20434;-47
2023/05/09 02:05:58;;;;;;;7.20;4.87;;;11.10;99.90;;;;;;5031431;28;20553;-47
2023/05/09 02:08:25;;;;;;;8.37;4.40;;;11.10;99.90;;;;;;5027636;28;21016;-47
2023/05/09 02:10:52;;;;;;;9.80;4.30;;;11.00;99.90;;;;;;5018530;28;20276;-47
2023/05/09 02:13:17;;;;;;;4.30;3.90;;;11.00;99.90;;;;;;5026907;28;20478;-47
2023/05/09 02:15:44;;;;;;;5.60;4.50;;;11.00;99.90;;;;;;5032585;28;20488;-47
2023/05/09 02:18:09;;;;;;;5.90;4.83;;;11.00;99.90;;;;;;5018538;28;20191;-47
2023/05/09 02:20:35;;;;;;;5.40;4.70;;;11.00;99.90;;;;;;5032755;28;20918;-47
2023/05/09 02:23:01;;;;;;;7.53;4.50;;;10.90;99.90;;;;;;5031546;28;20179;-47
2023/05/09 02:25:27;;;;;;;9.87;5.37;;;10.90;99.90;;;;;;5033167;28;20584;-47
2023/05/09 02:27:55;;;;;;;7.03;4.50;;;10.90;99.90;;;;;;5034770;28;20441;-47
2023/05/09 02:30:24;;;;;;;8.70;4.57;;;10.80;99.90;;;;;;5033809;28;20293;-47
2023/05/09 02:32:54;;;;;;;6.00;4.43;;;10.90;99.90;;;;;;5032239;28;20466;-47
2023/05/09 02:35:21;;;;;;;4.93;4.43;;;10.80;99.90;;;;;;5032945;28;20465;-48
2023/05/09 02:37:47;;;;;;;8.07;4.67;;;10.70;99.90;;;;;;5031782;28;20442;-48
2023/05/09 02:40:13;;;;;;;6.17;4.97;;;10.70;99.90;;;;;;5033604;28;20481;-47
2023/05/09 02:42:39;;;;;;;7.13;4.57;;;10.60;99.90;;;;;;5032427;28;20434;-47
2023/05/09 02:45:06;;;;;;;5.60;4.83;;;10.60;99.90;;;;;;5029577;28;20543;-48
2023/05/09 02:47:32;;;;;;;8.10;4.60;;;10.60;99.90;;;;;;5014247;28;20192;-47
2023/05/09 02:49:57;;;;;;;10.77;5.10;;;10.50;99.90;;;;;;5027804;28;20585;-47
2023/05/09 02:52:23;;;;;;;8.47;4.73;;;10.50;99.90;;;;;;5032287;28;20214;-47
2023/05/09 02:54:49;;;;;;;6.37;5.17;;;10.60;99.90;;;;;;5031596;28;20179;-47
2023/05/09 02:57:14;;;;;;;11.10;5.40;;;10.50;99.90;;;;;;5033255;28;20187;-49
2023/05/09 02:59:40;;;;;;;6.70;4.97;;;10.50;99.90;;;;;;5031766;28;20191;-47
2023/05/09 03:02:05;;;;;;;7.30;5.67;;;10.50;99.90;;;;;;5032444;28;20184;-48
2023/05/09 03:04:31;;;;;;;9.37;6.00;;;10.40;99.90;;;;;;5031096;28;20180;-48
2023/05/09 03:06:56;;;;;;;6.87;5.10;;;10.30;99.90;;;;;;5033680;28;20183;-47
2023/05/09 03:09:22;;;;;;;5.87;5.27;;;10.30;99.90;;;;;;5032058;28;20190;-47
2023/05/09 03:11:49;;;;;;;6.20;5.50;;;10.30;99.90;;;;;;5032002;28;20207;-47
2023/05/09 03:14:14;;;;;;;6.23;5.00;;;10.30;99.90;;;;;;5032032;28;20188;-47
2023/05/09 03:16:40;;;;;;;8.97;5.57;;;10.30;99.90;;;;;;5033225;28;20436;-47
2023/05/09 03:19:06;;;;;;;6.50;5.50;;;10.30;99.90;;;;;;5033129;28;20206;-47
2023/05/09 03:21:31;;;;;;;8.77;5.03;;;10.20;99.90;;;;;;5033171;28;20273;-47
2023/05/09 03:23:57;;;;;;;10.83;5.93;;;10.20;99.90;;;;;;5031974;28;20655;-47
2023/05/09 03:26:23;;;;;;;9.43;5.37;;;10.20;99.90;;;;;;5033235;28;20198;-47
2023/05/09 03:28:48;;;;;;;10.17;5.40;;;10.20;99.90;;;;;;5031685;28;20537;-48
2023/05/09 03:31:14;;;;;;;6.43;5.17;;;10.20;99.90;;;;;;5033094;28;20278;-48
2023/05/09 03:33:40;;;;;;;14.90;6.37;;;10.20;99.90;;;;;;5031021;28;20183;-47
2023/05/09 03:36:06;;;;;;;6.80;5.80;;;10.10;99.90;;;;;;5032743;28;20680;-47
2023/05/09 03:38:32;;;;;;;9.50;6.00;;;10.00;99.90;;;;;;5032504;28;20211;-47
2023/05/09 03:40:57;;;;;;;11.77;5.87;;;10.00;1.00;;;;;;5032827;28;20972;-48
2023/05/09 03:43:23;;;;;;;5.33;4.80;;;10.00;99.90;;;;;;5031695;28;20186;-47
2023/05/09 03:45:48;;;;;;;16.13;5.87;;;10.00;99.90;;;;;;5031745;28;20188;-47
2023/05/09 03:48:15;;;;;;;6.60;5.73;;;10.00;99.90;;;;;;5032986;28;20631;-48
2023/05/09 03:50:40;;;;;;;9.20;6.13;;;10.00;99.90;;;;;;5022743;28;20232;-47
2023/05/09 03:53:06;;;;;;;7.90;5.83;;;10.00;99.90;;;;;;5032647;28;20469;-47
2023/05/09 03:55:32;;;;;;;10.80;6.17;;;9.90;99.90;;;;;;5031120;28;20184;-47
2023/05/09 03:57:57;;;;;;;5.87;5.27;;;9.90;99.90;;;;;;5032532;28;20192;-48
2023/05/09 04:00:25;;;;;;;9.20;6.20;;;9.90;99.90;;;;;;5031838;28;20187;-48
2023/05/09 04:02:51;;;;;;;9.33;5.80;;;10.00;1.00;;;;;;5030342;28;20528;-47
2023/05/09 04:05:17;;;;;;;8.50;5.93;;;10.00;99.90;;;;;;5029889;28;20449;-48
2023/05/09 04:07:42;;;;;;;6.80;6.10;;;10.00;99.90;;;;;;5029084;28;20454;-49
2023/05/09 04:10:08;;;;;;;7.13;6.07;;;10.00;99.90;;;;;;5036195;28;20187;-48
2023/05/09 04:12:34;;;;;;;8.20;6.10;;;9.90;99.90;;;;;;5032705;28;20221;-48
2023/05/09 04:15:00;;;;;;;10.40;5.80;;;9.90;99.90;;;;;;5035814;28;20463;-48
2023/05/09 04:17:26;;;;;;;10.23;6.43;;;9.90;99.90;;;;;;5034940;28;20203;-48
2023/05/09 04:19:51;;;;;;;8.63;6.20;;;9.90;99.90;;;;;;5035169;28;20179;-48
2023/05/09 04:22:17;;;;;;;7.90;5.93;;;10.00;99.90;;;;;;5035542;28;20543;-48
2023/05/09 04:24:42;;;;;;;11.53;6.43;;;10.00;99.90;;;;;;5035608;28;20191;-48
2023/05/09 04:27:08;;;;;;;8.57;6.73;;;9.90;99.90;;;;;;5036129;28;20628;-48
2023/05/09 04:29:34;;;;;;;8.30;6.70;;;10.00;99.90;;;;;;5035320;28;20215;-48
2023/05/09 04:32:00;;;;;;;7.30;6.37;;;9.90;99.90;;;;;;5033643;28;20685;-48
2023/05/09 04:34:26;;;;;;;8.30;6.00;;;10.00;99.90;;;;;;5034344;28;20238;-48
2023/05/09 04:36:52;;;;;;;10.47;6.80;;;10.00;99.90;;;;;;5035129;28;20438;-47
2023/05/09 04:39:18;;;;;;;7.03;6.10;;;10.00;99.90;;;;;;5034580;28;20796;-48
2023/05/09 04:41:46;;;;;;;10.70;6.60;;;10.00;99.90;;;;;;5035009;28;20446;-48
2023/05/09 04:44:12;;;;;;;13.20;6.37;;;10.00;99.90;;;;;;5035535;28;20262;-48
2023/05/09 04:46:38;;;;;;;9.20;6.50;;;10.00;99.90;;;;;;5036431;28;20414;-48
2023/05/09 04:49:04;;;;;;;8.40;6.00;;;10.10;99.90;;;;;;5035093;28;20431;-48
2023/05/09 04:51:29;;;;;;;9.43;6.33;;;10.20;99.90;;;;;;5034024;28;20302;-48
2023/05/09 04:53:55;;;;;;;9.83;6.53;;;10.30;99.90;;;;;;5035148;28;20191;-48
2023/05/09 04:56:20;;;;;;;7.53;5.90;;;10.40;99.90;;;;;;5035668;28;20187;-48
2023/05/09 04:58:46;;;;;;;9.77;6.33;;;10.40;99.90;;;;;;5035721;28;20188;-48
2023/05/09 05:01:12;;;;;;;11.77;6.80;;;10.50;99.90;;;;;;5033695;28;20194;-48
2023/05/09 05:03:37;;;;;;;8.20;6.40;;;10.50;99.90;;;;;;5034705;28;20547;-49
2023/05/09 05:06:03;;;;;;;10.10;6.80;;;10.60;99.90;;;;;;5035732;28;20188;-48
2023/05/09 05:08:28;;;;;;;7.97;6.47;;;10.70;99.90;;;;;;5033804;28;20187;-48
2023/05/09 05:10:54;;;;;;;7.80;6.43;;;10.70;99.90;;;;;;5034474;28;20583;-48
2023/05/09 05:13:20;;;;;;;8.87;6.77;;;10.80;99.90;;;;;;5034908;28;20218;-48
2023/05/09 05:15:46;;;;;;;11.00;7.00;;;10.80;99.90;;;;;;5034602;28;20532;-48
2023/05/09 05:18:11;;;;;;;9.73;6.30;;;10.80;99.90;;;;;;5034277;28;20214;-48
2023/05/09 05:20:39;;;;;;;7.53;6.70;;;10.80;99.90;;;;;;5033592;28;20184;-48
2023/05/09 05:23:05;;;;;;;18.80;7.53;;;10.90;99.90;;;;;;5033631;28;20286;-48
2023/05/09 05:25:30;;;;;;;8.90;7.40;;;11.00;99.90;;;;;;5033699;28;20529;-48
2023/05/09 05:27:56;;;;;;;11.80;6.60;;;11.00;99.90;;;;;;5034449;28;20183;-46
2023/05/09 05:30:22;;;;;;;7.93;6.70;;;11.20;99.90;;;;;;5033511;28;20195;-45
2023/05/09 05:32:47;;;;;;;13.70;7.20;;;11.30;99.90;;;;;;5033007;28;20207;-48
2023/05/09 05:35:13;;;;;;;8.63;6.83;;;11.50;99.90;;;;;;5033794;28;20180;-48
2023/05/09 05:37:39;;;;;;;10.17;6.80;;;11.60;99.90;;;;;;5034261;28;20210;-48
2023/05/09 05:40:06;;;;;;;13.67;6.83;;;11.70;99.90;;;;;;5032604;28;20234;-48
2023/05/09 05:42:32;;;;;;;8.70;6.83;;;12.00;1.00;;;;;;5033120;28;20954;-48
2023/05/09 05:45:03;;;;;;;9.13;6.97;;;12.10;99.90;;;;;;5034241;28;20489;-48
2023/05/09 05:47:33;;;;;;;13.00;7.30;;;12.20;99.90;;;;;;5033315;28;20293;-48
2023/05/09 05:49:59;;;;;;;12.40;7.40;;;12.40;99.90;;;;;;5033638;28;20477;-48
2023/05/09 05:52:25;;;;;;;8.30;6.27;;;12.50;99.90;;;;;;5031774;28;20474;-48
2023/05/09 05:54:54;;;;;;;11.30;6.90;;;12.60;99.90;;;;;;5033821;28;20477;-48
2023/05/09 05:57:20;;;;;;;11.30;7.67;;;12.80;99.90;;;;;;5033816;28;20441;-48
2023/05/09 05:59:47;;;;;;;10.33;7.10;;;13.00;99.90;;;;;;5032994;28;20453;-48
2023/05/09 06:02:13;;;;;;;9.77;7.47;;;13.10;99.90;;;;;;5033475;28;20468;-48
2023/05/09 06:04:39;;;;;;;12.10;7.30;;;13.10;99.90;;;;;;5032620;28;20839;-48
2023/05/09 06:07:04;;;;;;;9.07;7.10;;;13.30;99.90;;;;;;5033072;28;20437;-48
2023/05/09 06:09:30;;;;;;;11.67;7.37;;;13.40;99.90;;;;;;5033258;28;20266;-49
2023/05/09 06:11:56;;;;;;;17.57;7.10;;;13.50;99.90;;;;;;5033551;28;20462;-48
2023/05/09 06:14:21;;;;;;;10.20;7.43;;;13.50;99.90;;;;;;5032325;28;20195;-49
2023/05/09 06:16:47;;;;;;;10.50;7.60;;;13.60;99.90;;;;;;5033524;28;20616;-48
2023/05/09 06:19:12;;;;;;;11.57;7.20;;;13.80;99.90;;;;;;5033264;28;20234;-48
2023/05/09 06:21:38;;;;;;;11.57;7.83;;;13.80;99.90;;;;;;5033224;28;20187;-48
2023/05/09 06:24:04;;;;;;;10.17;7.93;;;13.90;99.90;;;;;;5031722;28;20219;-50
2023/05/09 06:26:29;;;;;;;11.20;6.87;;;14.10;99.90;;;;;;5033761;28;20542;-48
2023/05/09 06:28:55;;;;;;;14.70;7.30;;;14.30;99.90;;;;;;5030988;28;20464;-47
2023/05/09 06:31:21;;;;;;;12.50;7.57;;;14.50;99.90;;;;;;5033367;28;20234;-48
2023/05/09 06:33:46;;;;;;;9.00;7.47;;;14.70;99.90;;;;;;5031482;28;20189;-48
2023/05/09 06:36:12;;;;;;;14.97;7.80;;;14.80;99.90;;;;;;5033147;28;20434;-48
2023/05/09 06:38:38;;;;;;;13.03;8.17;;;15.00;99.90;;;;;;5033284;28;20565;-46
2023/05/09 06:41:03;;;;;;;8.90;7.27;;;15.20;99.90;;;;;;5017277;28;20265;-48
2023/05/09 06:43:29;;;;;;;12.03;7.00;;;15.30;99.90;;;;;;5027280;28;20193;-48
2023/05/09 06:45:54;;;;;;;13.83;7.03;;;15.60;99.90;;;;;;5032159;28;20634;-48
2023/05/09 06:48:22;;;;;;;9.03;6.83;;;15.90;99.90;;;;;;5032861;28;20185;-48
2023/05/09 06:50:48;;;;;;;12.33;6.70;;;15.90;99.90;;;;;;5032542;28;20758;-48
2023/05/09 06:53:14;;;;;;;8.40;6.90;;;16.00;99.90;;;;;;5033013;28;20478;-48
2023/05/09 06:55:39;;;;;;;14.80;7.97;;;16.10;99.90;;;;;;5032469;28;20272;-48
2023/05/09 06:58:05;;;;;;;9.90;7.77;;;16.20;99.90;;;;;;5030607;28;20285;-48
2023/05/09 07:00:31;;;;;;;11.30;6.60;;;16.30;99.90;;;;;;5033894;28;20178;-48
2023/05/09 07:02:56;;;;;;;11.53;6.90;;;16.40;99.90;;;;;;5032063;28;20227;-47
2023/05/09 07:05:22;;;;;;;10.03;6.50;;;16.50;99.90;;;;;;5033140;28;20189;-47
2023/05/09 07:07:47;;;;;;;9.40;6.73;;;16.80;99.90;;;;;;5033027;28;20717;-47
2023/05/09 07:10:13;;;;;;;13.80;6.60;;;17.20;99.90;;;;;;5030150;28;20189;-47
2023/05/09 07:12:39;;;;;;;11.20;6.40;;;17.20;99.90;;;;;;5032397;28;20225;-47
2023/05/09 07:15:06;;;;;;;8.63;6.30;;;17.30;99.90;;;;;;5053387;28;20196;-47
2023/05/09 07:17:31;;;;;;;9.20;6.13;;;17.60;99.90;;;;;;5037393;28;20420;-47
2023/05/09 07:19:57;;;;;;;10.60;6.27;;;18.00;99.90;;;;;;5045039;28;20721;-47
2023/05/09 07:22:23;;;;;;;8.00;7.20;;;18.20;99.90;;;;;;5034239;28;20209;-47
2023/05/09 07:24:49;;;;;;;9.40;6.30;;;18.40;99.90;;;;;;5047601;28;20181;-48
2023/05/09 07:27:15;;;;;;;10.53;6.93;;;18.50;99.90;;;;;;5039246;28;20312;-48
2023/05/09 07:29:41;;;;;;;14.30;6.60;;;18.60;99.90;;;;;;5033579;28;20437;-48
2023/05/09 07:32:06;;;;;;;10.60;6.80;;;18.80;99.90;;;;;;5033950;28;20253;-49
2023/05/09 07:34:32;;;;;;;7.93;7.13;;;19.00;99.90;;;;;;5033482;28;20187;-49
2023/05/09 07:36:57;;;;;;;7.17;6.47;;;19.20;99.90;;;;;;5033046;28;20190;-49
2023/05/09 07:39:23;;;;;;;8.50;7.40;;;19.20;99.90;;;;;;5033660;28;20187;-48
2023/05/09 07:41:48;;;;;;;9.63;6.40;;;19.30;99.90;;;;;;5036815;28;20193;-49
2023/05/09 07:44:14;;;;;;;8.00;6.73;;;19.40;99.90;;;;;;5038185;28;20277;-48
2023/05/09 07:46:40;;;;;;;13.80;6.53;;;19.60;99.90;;;;;;5037713;28;20187;-48
2023/05/09 07:49:06;;;;;;;7.07;6.07;;;19.90;99.90;;;;;;5035580;28;20195;-49
2023/05/09 07:51:32;;;;;;;9.03;6.27;;;20.30;99.90;;;;;;5037062;28;20429;-49
2023/05/09 07:53:58;;;;;;;11.83;6.33;;;20.70;99.90;;;;;;5035755;28;20182;-49
2023/05/09 07:56:25;;;;;;;14.13;6.50;;;20.90;99.90;;;;;;5030433;28;20658;-50
2023/05/09 07:58:51;;;;;;;9.10;6.30;;;21.00;99.90;;;;;;5036717;28;20652;-50
2023/05/09 08:01:16;;;;;;;7.70;6.37;;;20.80;99.90;;;;;;5039491;28;20524;-50
2023/05/09 08:03:42;;;;;;;7.03;6.30;;;20.80;99.90;;;;;;5036972;28;20193;-50
2023/05/09 08:06:07;;;;;;;9.40;5.70;;;20.80;99.90;;;;;;5046097;28;20175;-50
2023/05/09 08:08:33;;;;;;;12.30;6.40;;;20.50;99.90;;;;;;5037042;28;20244;-51
2023/05/09 08:10:58;;;;;;;9.30;5.40;;;20.60;99.90;;;;;;5036782;28;20627;-50
2023/05/09 08:13:24;;;;;;;9.97;5.53;;;20.90;99.90;;;;;;5041027;28;20314;-50
2023/05/09 08:15:50;;;;;;;12.20;6.37;;;21.30;99.90;;;;;;5039318;28;20182;-48
2023/05/09 08:18:16;;;;;;;9.23;6.10;;;21.10;99.90;;;;;;5037511;28;20186;-51
2023/05/09 08:20:42;;;;;;;9.10;6.07;;;21.00;99.90;;;;;;5038931;28;20433;-50
2023/05/09 08:23:07;;;;;;;9.30;6.20;;;21.10;99.90;;;;;;5038114;28;20201;-49
2023/05/09 08:25:33;;;;;;;10.30;5.10;;;21.20;99.90;;;;;;5036723;28;20190;-50
2023/05/09 08:27:59;;;;;;;7.73;5.67;;;21.20;99.90;;;;;;5036908;28;20187;-50
2023/05/09 08:30:24;;;;;;;8.43;5.90;;;21.50;99.90;;;;;;5036789;28;20179;-50
2023/05/09 08:32:50;;;;;;;7.70;5.80;;;21.70;99.90;;;;;;5036593;28;20618;-50
2023/05/09 08:35:16;;;;;;;6.80;5.30;;;21.50;99.90;;;;;;5036995;28;20607;-50
2023/05/09 08:37:41;;;;;;;9.27;5.80;;;21.30;99.90;;;;;;5036604;28;20180;-49
2023/05/09 08:40:08;;;;;;;8.50;5.80;;;21.60;99.90;;;;;;5036840;28;20178;-50
2023/05/09 08:42:37;;;;;;;12.80;6.07;;;21.80;99.90;;;;;;5036253;28;20202;-50
2023/05/09 08:45:10;;;;;;;6.27;5.67;;;22.20;99.90;;;;;;5037535;28;20426;-49
2023/05/09 08:47:37;;;;;;;6.73;5.23;;;22.50;99.90;;;;;;5035897;28;20944;-49
2023/05/09 08:50:04;;;;;;;7.10;5.50;;;22.60;99.90;;;;;;5037225;28;20475;-50
2023/05/09 08:52:33;;;;;;;8.30;5.27;;;22.90;99.90;;;;;;5052802;28;20607;-49
2023/05/09 08:54:59;;;;;;;6.60;5.00;;;23.20;99.90;;;;;;5038375;28;20439;-49
2023/05/09 08:57:28;;;;;;;6.90;6.00;;;23.20;99.90;;;;;;5035481;28;20788;-50
2023/05/09 08:59:55;;;;;;;8.80;5.40;;;23.40;99.90;;;;;;5032170;28;20444;-50
2023/05/09 09:02:21;;;;;;;6.47;4.83;;;23.80;99.90;;;;;;5035870;28;20425;-51
2023/05/09 09:04:46;;;;;;;10.77;5.30;;;24.10;99.90;;;;;;5036266;28;20419;-49
2023/05/09 09:07:14;;;;;;;6.57;4.27;;;23.90;99.90;;;;;;5035516;28;20528;-50
2023/05/09 09:09:45;;;;;;;8.80;5.30;;;23.80;99.90;;;;;;5029495;28;20597;-50
2023/05/09 09:12:12;;;;;;;8.03;4.80;;;23.70;99.90;;;;;;5016333;28;20449;-50
2023/05/09 09:14:44;;;;;;;11.23;5.10;;;23.70;99.90;;;;;;5016261;28;20430;-50
2023/05/09 09:17:14;;;;;;;8.27;5.00;;;23.60;99.90;;;;;;5016854;28;20913;-50
2023/05/09 09:19:43;;;;;;;7.20;5.43;;;22.90;99.90;;;;;;5041587;28;20832;-50
2023/05/09 09:22:13;;;;;;;9.23;4.70;;;22.40;99.90;;;;;;5038254;28;20436;-50
2023/05/09 09:24:39;;;;;;;7.03;5.00;;;22.20;99.90;;;;;;5041117;28;20432;-50
2023/05/09 09:27:05;;;;;;;8.63;5.07;;;22.00;99.90;;;;;;5055281;28;20510;-50
2023/05/09 09:29:32;;;;;;;6.80;4.53;;;22.00;99.90;;;;;;5045215;28;20186;-50
2023/05/09 09:32:01;;;;;;;6.90;4.77;;;22.10;99.90;;;;;;5035254;28;20464;-50
2023/05/09 09:34:27;;;;;;;8.87;5.40;;;22.40;99.90;;;;;;5035596;28;20508;-50
2023/05/09 09:36:53;;;;;;;7.60;5.00;;;22.80;99.90;;;;;;5035826;28;20442;-51
2023/05/09 09:39:20;;;;;;;10.20;4.60;;;22.90;99.90;;;;;;5034960;28;20444;-52
2023/05/09 09:41:46;;;;;;;5.30;4.37;;;23.20;99.90;;;;;;5032089;28;20537;-51
2023/05/09 09:44:20;;;;;;;6.70;4.10;;;23.40;99.90;;;;;;5034078;28;20437;-50
2023/05/09 09:46:55;;;;;;;5.70;4.10;;;23.50;99.90;;;;;;5015554;28;20400;-51
2023/05/09 09:49:23;;;;;;;9.50;4.80;;;23.50;99.90;;;;;;5023157;28;21055;-51
2023/05/09 09:51:51;;;;;;;9.23;4.50;;;23.80;99.90;;;;;;5033516;28;20556;-50
2023/05/09 09:54:16;;;;;;;4.97;3.93;;;24.10;99.90;;;;;;5034261;28;20431;-50
2023/05/09 09:56:43;;;;;;;6.20;4.33;;;24.10;99.90;;;;;;5034251;28;20782;-51
2023/05/09 09:59:18;;;;;;;4.80;4.40;;;24.40;99.90;;;;;;5033654;28;20189;-49
2023/05/09 10:02:00;;;;;;;5.83;4.20;;;25.00;99.90;;;;;;5034886;28;20429;-49
2023/05/09 10:04:37;;;;;;;4.30;3.90;;;25.30;99.90;;;;;;5034372;28;20934;-49
2023/05/09 10:07:05;;;;;;;6.13;3.80;;;25.30;99.90;;;;;;5037996;28;20421;-49
2023/05/09 10:09:32;;;;;;;7.80;4.60;;;24.90;99.90;;;;;;5037466;28;20641;-49
2023/05/09 10:12:02;;;;;;;8.63;4.37;;;24.90;99.90;;;;;;5040924;28;20480;-50
2023/05/09 10:14:30;;;;;;;8.07;4.30;;;25.00;99.90;;;;;;5038851;28;20422;-50
2023/05/09 10:16:56;;;;;;;5.73;3.87;;;25.20;99.90;;;;;;5042805;28;20546;-49
2023/05/09 10:19:24;;;;;;;5.70;4.50;;;25.30;99.90;;;;;;5048913;28;20424;-50
2023/05/09 10:21:51;;;;;;;4.60;4.07;;;25.40;99.90;;;;;;5048991;28;20418;-50
2023/05/09 10:24:32;;;;;;;7.63;4.00;;;25.50;99.90;;;;;;5050439;28;20423;-50
2023/05/09 10:27:03;;;;;;;4.30;3.90;;;25.80;99.90;;;;;;5037136;28;20438;-49
2023/05/09 10:29:35;;;;;;;9.00;4.43;;;25.90;99.90;;;;;;5034473;28;20473;-48
2023/05/09 10:32:14;;;;;;;6.27;4.07;;;25.80;99.90;;;;;;5034325;28;20805;-48
2023/05/09 10:34:43;;;;;;;4.77;3.83;;;26.00;99.90;;;;;;5035523;28;20457;-48
2023/05/09 10:37:09;;;;;;;6.20;4.23;;;26.40;99.90;;;;;;5034641;28;20429;-49
2023/05/09 10:39:35;;;;;;;9.10;4.07;;;26.10;99.90;;;;;;5032870;28;20521;-49
2023/05/09 10:42:02;;;;;;;10.60;4.20;;;26.40;99.90;;;;;;5034326;28;20236;-49
2023/05/09 10:44:28;;;;;;;4.93;3.60;;;26.60;99.90;;;;;;5034320;28;20495;-49
2023/05/09 10:46:54;;;;;;;4.70;3.63;;;26.90;99.90;;;;;;5034143;28;20430;-48
2023/05/09 10:49:20;;;;;;;9.90;4.17;;;26.70;99.90;;;;;;5033752;28;20250;-50
2023/05/09 10:51:49;;;;;;;7.33;3.80;;;26.60;99.90;;;;;;5034559;28;20469;-49
2023/05/09 10:54:31;;;;;;;7.63;3.97;;;26.80;99.90;;;;;;5028816;28;20423;-49
2023/05/09 10:56:57;;;;;;;8.77;3.70;;;26.60;99.90;;;;;;5014064;28;20411;-49
2023/05/09 10:59:52;;;;;;;6.80;4.20;;;26.90;99.90;;;;;;5029789;28;20768;-49
2023/05/09 11:02:20;;;;;;;6.57;3.80;;;27.20;99.90;;;;;;5033062;28;20652;-49
2023/05/09 11:04:46;;;;;;;8.40;3.63;;;27.50;99.90;;;;;;5033254;28;20498;-49
2023/05/09 11:07:26;;;;;;;7.30;3.80;;;27.60;99.90;;;;;;5038886;28;20436;-49
2023/05/09 11:10:06;;;;;;;4.23;3.57;;;27.40;99.90;;;;;;5053525;28;20190;-49
2023/05/09 11:12:31;;;;;;;3.83;3.13;;;27.40;99.90;;;;;;5041984;28;20800;-49
2023/05/09 11:15:05;;;;;;;6.63;3.90;;;27.40;99.90;;;;;;5033565;28;20429;-49
2023/05/09 11:17:31;;;;;;;8.30;3.90;;;27.70;99.90;;;;;;5033728;28;20191;-49
2023/05/09 11:20:04;;;;;;;10.50;3.60;;;27.80;99.90;;;;;;5033424;28;20998;-49
2023/05/09 11:22:38;;;;;;;8.13;3.73;;;27.90;99.90;;;;;;5013817;28;20846;-49
2023/05/09 11:25:04;;;;;;;3.63;3.30;;;28.30;99.90;;;;;;5023816;28;20522;-49
2023/05/09 11:27:44;;;;;;;12.87;4.20;;;28.20;99.90;;;;;;5024580;28;20446;-49
2023/05/09 11:30:14;;;;;;;5.30;3.67;;;28.00;99.90;;;;;;5014139;28;20454;-49
2023/05/09 11:32:44;;;;;;;4.87;3.43;;;27.90;99.90;;;;;;5026787;28;20560;-49
2023/05/09 11:35:13;;;;;;;6.10;4.03;;;27.90;99.90;;;;;;5033831;28;20457;-49
2023/05/09 11:37:59;;;;;;;6.00;3.37;;;28.00;99.90;;;;;;5033747;28;20433;-49
2023/05/09 11:40:26;;;;;;;5.50;3.70;;;28.10;99.90;;;;;;5032861;28;20474;-49
2023/05/09 11:42:54;;;;;;;9.70;3.73;;;28.00;99.90;;;;;;5032288;28;20937;-49
2023/05/09 11:45:20;;;;;;;5.07;3.20;;;27.80;99.90;;;;;;5031601;28;20441;-50
2023/05/09 11:47:47;;;;;;;4.43;3.40;;;28.30;99.90;;;;;;5033863;28;20438;-47
2023/05/09 11:50:15;;;;;;;6.40;3.50;;;28.80;99.90;;;;;;5032977;28;20602;-47
2023/05/09 11:52:42;;;;;;;5.50;3.53;;;29.10;99.90;;;;;;5032145;28;20981;-47
2023/05/09 11:55:12;;;;;;;7.30;3.77;;;29.20;99.90;;;;;;5033458;28;20468;-47
2023/05/09 11:57:43;;;;;;;4.67;3.10;;;29.40;99.90;;;;;;5030032;28;20876;-47
2023/05/09 12:00:10;;;;;;;9.83;3.57;;;29.30;99.90;;;;;;5032035;28;20821;-47
2023/05/09 12:02:36;;;;;;;5.20;3.70;;;28.70;99.90;;;;;;5031058;28;20449;-47
2023/05/09 12:05:09;;;;;;;6.20;3.40;;;28.30;99.90;;;;;;5032567;28;20436;-47
2023/05/09 12:07:37;;;;;;;8.03;3.67;;;28.10;99.90;;;;;;5032410;28;20450;-47
2023/05/09 12:10:11;;;;;;;10.40;3.90;;;28.10;99.90;;;;;;5032462;28;20430;-47
2023/05/09 12:12:45;;;;;;;4.53;3.50;;;28.30;99.90;;;;;;5031135;28;20894;-47
2023/05/09 12:15:12;;;;;;;5.50;3.70;;;28.00;99.90;;;;;;5031490;28;20444;-49
2023/05/09 12:17:38;;;;;;;7.90;3.83;;;27.40;99.90;;;;;;5031115;28;20529;-47
2023/05/09 12:20:05;;;;;;;5.80;4.03;;;27.40;99.90;;;;;;5031506;28;20430;-49
2023/05/09 12:22:31;;;;;;;5.30;4.17;;;27.10;99.90;;;;;;5029935;28;20778;-50
2023/05/09 12:25:01;;;;;;;10.27;4.80;;;27.20;99.90;;;;;;5032931;28;20423;-47
2023/05/09 12:27:28;;;;;;;11.10;7.63;;;27.40;99.90;;;;;;5034142;28;20421;-47
2023/05/09 12:29:54;;;;;;;21.83;15.03;;;27.70;99.90;;;;;;5035282;28;20484;-47
2023/05/09 12:32:20;;;;;;;33.60;21.63;;;27.80;99.90;;;;;;5034082;28;20470;-48
2023/05/09 12:34:50;;;;;;;31.10;21.27;;;27.40;99.90;;;;;;5035796;28;20865;-47
2023/05/09 12:37:19;;;;;;;23.87;19.00;;;27.40;99.90;;;;;;5035082;28;20449;-48
2023/05/09 12:40:03;;;;;;;34.17;22.90;;;27.30;99.90;;;;;;5036993;28;20414;-48
2023/05/09 12:42:30;;;;;;;32.43;19.23;;;27.40;99.90;;;;;;5034961;28;20491;-49
2023/05/09 12:44:56;;;;;;;28.13;17.93;;;27.30;99.90;;;;;;5036479;28;20419;-49
2023/05/09 12:47:26;;;;;;;20.17;13.80;;;27.00;99.90;;;;;;5033596;28;20789;-49